You are not logged in, Click here to log in
ICAO: EDDF Country: 德國黑森邦法蘭克福
Latitude: 50.0264 Longitude: 8.54313
Total Arrivals: 30 Total Departures: 32
Latest Arrival: LH721 (ZBAA-EDDF)Mori. Yang Latest Departure: DK1279 (EDDF-RCTP)Mori. Yang
Scenery:
METAR : EDDF 241120Z 15003KT 100V220 CAVOK 22/09 Q1014 NOSIG

法蘭克福機場FRA